createdAt,value
2017-01-09T00:00:33.474Z,0
2017-01-09T00:01:34.093Z,0
2017-01-09T00:02:33.286Z,0
2017-01-09T00:03:33.651Z,0
2017-01-09T00:04:33.573Z,0
2017-01-09T00:05:32.995Z,0
2017-01-09T00:06:33.508Z,0
2017-01-09T00:07:33.270Z,0
2017-01-09T00:08:33.507Z,0
2017-01-09T00:09:33.942Z,0
2017-01-09T00:10:33.356Z,0
2017-01-09T00:11:34.061Z,0
2017-01-09T00:12:33.750Z,0
2017-01-09T00:13:32.879Z,0
2017-01-09T00:14:32.739Z,0
2017-01-09T00:15:33.572Z,0
2017-01-09T00:16:33.669Z,0
2017-01-09T00:17:33.299Z,0
2017-01-09T00:18:34.201Z,0
2017-01-09T00:19:34.151Z,0
2017-01-09T00:20:33.387Z,0
2017-01-09T00:21:33.377Z,0
2017-01-09T00:22:33.589Z,0
2017-01-09T00:23:33.643Z,0
2017-01-09T00:24:33.455Z,0
2017-01-09T00:25:34.004Z,0
2017-01-09T00:26:33.050Z,0
2017-01-09T00:27:33.840Z,0
2017-01-09T00:28:33.334Z,0
2017-01-09T00:29:33.757Z,0
2017-01-09T00:30:33.358Z,0
2017-01-09T00:31:34.020Z,0
2017-01-09T00:32:33.523Z,0
2017-01-09T00:33:33.441Z,0
2017-01-09T00:34:34.287Z,0
2017-01-09T00:35:33.708Z,0
2017-01-09T00:36:33.669Z,0
2017-01-09T00:37:34.130Z,0
2017-01-09T00:38:33.463Z,0
2017-01-09T00:39:33.654Z,0
2017-01-09T00:40:33.776Z,0
2017-01-09T00:41:34.233Z,0
2017-01-09T00:42:34.099Z,0
2017-01-09T00:43:34.138Z,0
2017-01-09T00:44:33.826Z,0
2017-01-09T00:45:33.867Z,0
2017-01-09T00:46:33.763Z,0
2017-01-09T00:47:34.261Z,0
2017-01-09T00:48:34.140Z,0
2017-01-09T00:49:33.681Z,0
2017-01-09T00:50:34.526Z,0
2017-01-09T00:51:33.530Z,0
2017-01-09T00:52:33.719Z,0
2017-01-09T00:53:33.499Z,0
2017-01-09T00:54:33.691Z,0
2017-01-09T00:55:35.269Z,0
2017-01-09T00:56:35.629Z,0
2017-01-09T00:57:34.033Z,0
2017-01-09T00:58:34.562Z,0
2017-01-09T00:59:33.827Z,0
2017-01-09T01:00:34.335Z,0
2017-01-09T01:01:33.526Z,0
2017-01-09T01:02:33.993Z,0
2017-01-09T01:03:34.268Z,0
2017-01-09T01:04:33.575Z,0
2017-01-09T01:05:33.857Z,0
2017-01-09T01:06:34.222Z,0
2017-01-09T01:07:34.212Z,0
2017-01-09T01:08:34.251Z,0
2017-01-09T01:09:33.911Z,0
2017-01-09T01:10:34.150Z,0
2017-01-09T01:11:34.298Z,0
2017-01-09T01:12:35.275Z,0
2017-01-09T01:13:34.704Z,0
2017-01-09T01:14:34.286Z,0
2017-01-09T01:15:34.194Z,0
2017-01-09T01:16:34.862Z,0
2017-01-09T01:17:33.902Z,0
2017-01-09T01:18:34.153Z,0
2017-01-09T01:19:34.765Z,0
2017-01-09T01:20:33.810Z,0
2017-01-09T01:21:34.187Z,0
2017-01-09T01:22:34.180Z,0
2017-01-09T01:23:34.921Z,0
2017-01-09T01:24:34.278Z,0
2017-01-09T01:25:34.794Z,0
2017-01-09T01:26:34.604Z,0
2017-01-09T01:27:34.103Z,0
2017-01-09T01:28:34.808Z,0
2017-01-09T01:29:34.838Z,0
2017-01-09T01:30:35.363Z,0
2017-01-09T01:31:34.724Z,0
2017-01-09T01:32:34.081Z,0
2017-01-09T01:33:34.279Z,0
2017-01-09T01:34:33.811Z,0
2017-01-09T01:35:34.385Z,0
2017-01-09T01:36:34.519Z,0
2017-01-09T01:37:34.074Z,0
2017-01-09T01:38:35.259Z,0
2017-01-09T01:39:34.513Z,0
2017-01-09T01:40:34.291Z,0
2017-01-09T01:41:34.635Z,0
2017-01-09T01:42:34.182Z,0
2017-01-09T01:43:34.543Z,0
2017-01-09T01:44:34.343Z,0
2017-01-09T01:45:34.620Z,0
2017-01-09T01:46:33.995Z,0
2017-01-09T01:47:34.355Z,0
2017-01-09T01:48:34.729Z,0
2017-01-09T01:49:35.121Z,0
2017-01-09T01:50:34.154Z,0
2017-01-09T01:51:35.225Z,0
2017-01-09T01:52:34.454Z,0
2017-01-09T01:53:34.925Z,0
2017-01-09T01:54:34.257Z,0
2017-01-09T01:55:35.007Z,0
2017-01-09T01:56:34.457Z,0
2017-01-09T01:57:35.808Z,0
2017-01-09T01:58:35.105Z,0
2017-01-09T01:59:35.103Z,0
2017-01-09T02:00:34.537Z,0
2017-01-09T02:01:34.772Z,0
2017-01-09T02:02:34.708Z,0
2017-01-09T02:03:35.386Z,0
2017-01-09T02:04:35.576Z,0
2017-01-09T02:05:35.138Z,0
2017-01-09T02:06:34.782Z,0
2017-01-09T02:07:34.121Z,0
2017-01-09T02:08:34.398Z,0
2017-01-09T02:09:35.259Z,0
2017-01-09T02:10:34.707Z,0
2017-01-09T02:11:34.219Z,0
2017-01-09T02:12:34.304Z,0
2017-01-09T02:13:34.577Z,0
2017-01-09T02:14:34.388Z,0
2017-01-09T02:15:35.222Z,0
2017-01-09T02:16:34.599Z,0
2017-01-09T02:17:35.267Z,0
2017-01-09T02:18:34.233Z,0
2017-01-09T02:19:35.754Z,0
2017-01-09T02:20:35.247Z,0
2017-01-09T02:21:35.145Z,0
2017-01-09T02:22:34.663Z,0
2017-01-09T02:23:34.976Z,0
2017-01-09T02:24:35.935Z,0
2017-01-09T02:25:35.103Z,0
2017-01-09T02:26:34.793Z,0
2017-01-09T02:27:35.294Z,0
2017-01-09T02:28:36.798Z,0
2017-01-09T02:29:35.189Z,0
2017-01-09T02:30:36.017Z,0
2017-01-09T02:31:35.475Z,0
2017-01-09T02:32:35.627Z,0
2017-01-09T02:33:35.400Z,0
2017-01-09T02:34:35.275Z,0
2017-01-09T02:35:34.804Z,0
2017-01-09T02:36:35.237Z,0
2017-01-09T02:37:35.036Z,0
2017-01-09T02:38:35.237Z,0
2017-01-09T02:39:35.197Z,0
2017-01-09T02:40:36.437Z,0
2017-01-09T02:41:35.384Z,0
2017-01-09T02:42:35.176Z,0
2017-01-09T02:43:35.557Z,0
2017-01-09T02:44:36.370Z,0
2017-01-09T02:45:34.843Z,0
2017-01-09T02:46:35.126Z,0
2017-01-09T02:47:34.947Z,0
2017-01-09T02:48:35.060Z,0
2017-01-09T02:49:34.796Z,0
2017-01-09T02:50:35.758Z,0
2017-01-09T02:51:34.912Z,0
2017-01-09T02:52:34.853Z,0
2017-01-09T02:53:35.962Z,0
2017-01-09T02:54:35.322Z,0
2017-01-09T02:55:35.670Z,0
2017-01-09T02:56:35.218Z,0
2017-01-09T02:57:35.659Z,0
2017-01-09T02:58:35.244Z,0
2017-01-09T02:59:35.171Z,0
2017-01-09T03:00:35.982Z,0
2017-01-09T03:01:36.142Z,0
2017-01-09T03:02:35.969Z,0
2017-01-09T03:03:35.547Z,0
2017-01-09T03:04:34.906Z,0
2017-01-09T03:05:35.664Z,0
2017-01-09T03:06:35.462Z,0
2017-01-09T03:07:35.265Z,0
2017-01-09T03:08:36.072Z,0
2017-01-09T03:09:35.227Z,0
2017-01-09T03:10:35.367Z,0
2017-01-09T03:11:35.383Z,0
2017-01-09T03:12:35.608Z,0
2017-01-09T03:13:35.455Z,0
2017-01-09T03:14:35.870Z,0
2017-01-09T03:15:35.182Z,0
2017-01-09T03:16:34.935Z,0
2017-01-09T03:17:35.666Z,0
2017-01-09T03:18:36.302Z,0
2017-01-09T03:19:35.988Z,0
2017-01-09T03:20:35.751Z,0
2017-01-09T03:21:37.036Z,0
2017-01-09T03:22:35.729Z,0
2017-01-09T03:23:35.738Z,0
2017-01-09T03:24:35.988Z,0
2017-01-09T03:25:35.637Z,0
2017-01-09T03:26:35.921Z,0
2017-01-09T03:27:35.689Z,0
2017-01-09T03:28:35.325Z,0
2017-01-09T03:29:36.010Z,0
2017-01-09T03:30:35.794Z,0
2017-01-09T03:31:36.080Z,0
2017-01-09T03:32:35.974Z,0
2017-01-09T03:33:35.566Z,0
2017-01-09T03:34:36.207Z,0
2017-01-09T03:35:36.364Z,0
2017-01-09T03:36:36.420Z,0
2017-01-09T03:37:37.405Z,0
2017-01-09T03:38:35.587Z,0
2017-01-09T03:39:35.530Z,0
2017-01-09T03:40:35.120Z,0
2017-01-09T03:41:36.683Z,0
2017-01-09T03:42:36.290Z,0
2017-01-09T03:43:35.412Z,0
2017-01-09T03:44:36.115Z,0
2017-01-09T03:45:36.147Z,0
2017-01-09T03:46:35.581Z,0
2017-01-09T03:47:36.615Z,0
2017-01-09T03:48:36.190Z,0
2017-01-09T03:49:36.480Z,0
2017-01-09T03:50:36.390Z,0
2017-01-09T03:51:36.188Z,0
2017-01-09T03:52:36.468Z,0
2017-01-09T03:53:35.942Z,0
2017-01-09T03:54:36.819Z,0
2017-01-09T03:55:35.796Z,0
2017-01-09T03:56:42.101Z,0
2017-01-09T03:57:35.966Z,0
2017-01-09T03:58:36.964Z,0
2017-01-09T03:59:35.753Z,0
2017-01-09T04:00:36.444Z,0
2017-01-09T04:01:36.331Z,0
2017-01-09T04:02:35.516Z,0
2017-01-09T04:03:36.134Z,0
2017-01-09T04:04:36.713Z,0
2017-01-09T04:05:36.439Z,0
2017-01-09T04:06:36.401Z,0
2017-01-09T04:07:36.465Z,0
2017-01-09T04:08:36.941Z,0
2017-01-09T04:09:36.851Z,0
2017-01-09T04:10:36.777Z,0
2017-01-09T04:11:36.326Z,0
2017-01-09T04:12:36.007Z,0
2017-01-09T04:13:36.507Z,0
2017-01-09T04:14:37.052Z,0
2017-01-09T04:15:36.306Z,0
2017-01-09T04:16:36.153Z,0
2017-01-09T04:17:36.288Z,0
2017-01-09T04:18:35.912Z,0
2017-01-09T04:19:36.678Z,0
2017-01-09T04:20:36.916Z,0
2017-01-09T04:21:35.796Z,0
2017-01-09T04:22:36.217Z,0
2017-01-09T04:23:36.084Z,0
2017-01-09T04:24:36.785Z,0
2017-01-09T04:25:37.175Z,0
2017-01-09T04:26:36.057Z,0
2017-01-09T04:27:36.436Z,0
2017-01-09T04:28:36.555Z,0
2017-01-09T04:29:36.601Z,0
2017-01-09T04:30:36.551Z,0
2017-01-09T04:31:36.446Z,0
2017-01-09T04:32:37.315Z,0
2017-01-09T04:33:36.692Z,0
2017-01-09T04:34:36.792Z,0
2017-01-09T04:35:37.126Z,0
2017-01-09T04:36:36.652Z,0
2017-01-09T04:37:36.840Z,0
2017-01-09T04:38:36.396Z,0
2017-01-09T04:39:36.758Z,0
2017-01-09T04:40:37.134Z,0
2017-01-09T04:41:36.299Z,0
2017-01-09T04:42:36.790Z,0
2017-01-09T04:43:37.086Z,0
2017-01-09T04:44:36.569Z,0
2017-01-09T04:45:36.784Z,0
2017-01-09T04:46:37.795Z,0
2017-01-09T04:47:36.475Z,0
2017-01-09T04:48:36.952Z,0
2017-01-09T04:49:36.037Z,0
2017-01-09T04:50:37.653Z,0
2017-01-09T04:51:36.794Z,0
2017-01-09T04:52:36.944Z,0
2017-01-09T04:53:36.850Z,0
2017-01-09T04:54:37.484Z,0
2017-01-09T04:55:36.486Z,0
2017-01-09T04:56:36.356Z,0
2017-01-09T04:57:36.898Z,0
2017-01-09T04:58:36.580Z,0
2017-01-09T04:59:36.727Z,0
2017-01-09T05:00:37.372Z,0
2017-01-09T05:01:36.325Z,0
2017-01-09T05:02:37.085Z,0
2017-01-09T05:03:36.617Z,0
2017-01-09T05:04:36.628Z,0
2017-01-09T05:05:37.267Z,0
2017-01-09T05:06:37.354Z,0
2017-01-09T05:07:36.859Z,0
2017-01-09T05:08:37.326Z,0
2017-01-09T05:09:36.365Z,0
2017-01-09T05:10:36.837Z,0
2017-01-09T05:11:36.590Z,0
2017-01-09T05:12:36.958Z,0
2017-01-09T05:13:37.800Z,0
2017-01-09T05:14:38.194Z,0
2017-01-09T05:15:37.739Z,0
2017-01-09T05:16:37.887Z,0
2017-01-09T05:17:37.546Z,0
2017-01-09T05:18:38.194Z,0
2017-01-09T05:19:36.929Z,0
2017-01-09T05:20:37.705Z,0
2017-01-09T05:21:38.183Z,0
2017-01-09T05:22:40.473Z,0
2017-01-09T05:23:37.600Z,0
2017-01-09T05:24:37.451Z,0
2017-01-09T05:25:38.211Z,0
2017-01-09T05:26:37.404Z,0
2017-01-09T05:27:38.928Z,0
2017-01-09T05:28:38.117Z,0
2017-01-09T05:29:39.206Z,0
2017-01-09T05:30:38.745Z,0
2017-01-09T05:31:39.977Z,0
2017-01-09T05:32:37.993Z,0
2017-01-09T05:33:39.337Z,0
2017-01-09T05:34:40.054Z,0
2017-01-09T05:35:38.091Z,0
2017-01-09T05:36:38.309Z,0
2017-01-09T05:37:37.632Z,0
2017-01-09T05:38:37.645Z,0
2017-01-09T05:39:37.570Z,0
2017-01-09T05:40:37.706Z,0
2017-01-09T05:41:38.338Z,0
2017-01-09T05:42:38.603Z,0
2017-01-09T05:43:38.872Z,0
2017-01-09T05:44:38.426Z,0
2017-01-09T05:45:38.066Z,0
2017-01-09T05:46:39.674Z,0
2017-01-09T05:47:40.016Z,0
2017-01-09T05:48:38.774Z,0
2017-01-09T05:49:38.591Z,0
2017-01-09T05:50:38.437Z,0
2017-01-09T05:51:40.333Z,0
2017-01-09T05:52:38.555Z,0
2017-01-09T05:53:39.136Z,0
2017-01-09T05:54:37.871Z,0
2017-01-09T05:55:38.644Z,0
2017-01-09T05:56:38.395Z,0
2017-01-09T05:57:39.129Z,0
2017-01-09T05:58:38.452Z,0
2017-01-09T05:59:39.888Z,0
2017-01-09T06:00:38.775Z,0
2017-01-09T06:01:38.837Z,0
2017-01-09T06:02:38.240Z,0
2017-01-09T06:03:39.179Z,0
2017-01-09T06:04:39.468Z,0
2017-01-09T06:05:38.337Z,0
2017-01-09T06:06:38.770Z,0
2017-01-09T06:07:38.940Z,0
2017-01-09T06:08:39.920Z,0
2017-01-09T06:09:38.730Z,0
2017-01-09T06:10:38.884Z,0
2017-01-09T06:11:39.152Z,0
2017-01-09T06:12:39.870Z,0
2017-01-09T06:13:38.858Z,0
2017-01-09T06:14:37.133Z,0
2017-01-09T06:15:38.879Z,0
2017-01-09T06:16:38.535Z,0
2017-01-09T06:17:38.860Z,0
2017-01-09T06:18:37.705Z,0
2017-01-09T06:19:37.702Z,0
2017-01-09T06:20:38.029Z,0
2017-01-09T06:21:37.321Z,0
2017-01-09T06:22:39.561Z,0
2017-01-09T06:23:41.426Z,0
2017-01-09T06:24:39.908Z,0
2017-01-09T06:25:38.411Z,0
2017-01-09T06:26:39.012Z,0
2017-01-09T06:27:38.070Z,0
2017-01-09T06:28:39.250Z,0
2017-01-09T06:29:39.552Z,0
2017-01-09T06:30:38.668Z,0
2017-01-09T06:31:39.066Z,0
2017-01-09T06:32:39.694Z,0
2017-01-09T06:33:37.761Z,0
2017-01-09T06:34:38.461Z,0
2017-01-09T06:35:39.348Z,0
2017-01-09T06:36:43.159Z,0
2017-01-09T06:37:39.466Z,0
2017-01-09T06:38:39.158Z,0
2017-01-09T06:39:39.046Z,0
2017-01-09T06:40:38.164Z,0
2017-01-09T06:41:41.436Z,0
2017-01-09T06:42:37.698Z,0
2017-01-09T06:43:40.236Z,0
2017-01-09T06:44:40.019Z,0
2017-01-09T06:45:37.931Z,0
2017-01-09T06:46:38.411Z,0
2017-01-09T06:47:38.538Z,0
2017-01-09T06:48:38.526Z,0
2017-01-09T06:49:37.882Z,0
2017-01-09T06:50:37.436Z,0
2017-01-09T06:51:38.257Z,4
2017-01-09T06:52:38.398Z,4
2017-01-09T06:53:38.421Z,0
2017-01-09T06:54:37.701Z,4
2017-01-09T06:55:38.113Z,0
2017-01-09T06:56:38.304Z,4
2017-01-09T06:57:38.373Z,8
2017-01-09T06:58:38.146Z,4
2017-01-09T06:59:38.630Z,4
2017-01-09T07:00:38.567Z,8
2017-01-09T07:01:37.991Z,8
2017-01-09T07:02:38.234Z,8
2017-01-09T07:03:38.750Z,12
2017-01-09T07:04:37.812Z,16
2017-01-09T07:05:38.699Z,20
2017-01-09T07:06:38.256Z,20
2017-01-09T07:07:37.886Z,24
2017-01-09T07:08:37.757Z,28
2017-01-09T07:09:38.135Z,28
2017-01-09T07:10:38.416Z,32
2017-01-09T07:11:38.466Z,40
2017-01-09T07:12:39.176Z,40
2017-01-09T07:13:38.200Z,48
2017-01-09T07:14:37.840Z,52
2017-01-09T07:15:38.440Z,60
2017-01-09T07:16:38.143Z,68
2017-01-09T07:17:38.340Z,76
2017-01-09T07:18:39.123Z,88
2017-01-09T07:19:38.538Z,92
2017-01-09T07:20:38.799Z,108
2017-01-09T07:21:38.933Z,116
2017-01-09T07:22:38.373Z,124
2017-01-09T07:23:38.397Z,136
2017-01-09T07:24:38.600Z,144
2017-01-09T07:25:40.195Z,156
2017-01-09T07:26:38.957Z,164
2017-01-09T07:27:39.051Z,172
2017-01-09T07:28:38.793Z,180
2017-01-09T07:29:38.315Z,196
2017-01-09T07:30:37.908Z,208
2017-01-09T07:31:38.059Z,224
2017-01-09T07:32:39.818Z,244
2017-01-09T07:33:38.375Z,264
2017-01-09T07:34:38.464Z,292
2017-01-09T07:35:39.405Z,332
2017-01-09T07:36:38.432Z,368
2017-01-09T07:37:38.518Z,416
2017-01-09T07:38:39.821Z,464
2017-01-09T07:39:38.433Z,500
2017-01-09T07:40:39.275Z,548
2017-01-09T07:41:38.921Z,616
2017-01-09T07:42:38.439Z,716
2017-01-09T07:43:38.184Z,796
2017-01-09T07:44:39.365Z,844
2017-01-09T07:45:39.868Z,844
2017-01-09T07:46:38.372Z,808
2017-01-09T07:47:38.916Z,772
2017-01-09T07:48:39.045Z,756
2017-01-09T07:49:39.531Z,760
2017-01-09T07:50:38.203Z,776
2017-01-09T07:51:38.863Z,780
2017-01-09T07:52:38.519Z,792
2017-01-09T07:53:38.839Z,812
2017-01-09T07:54:38.238Z,840
2017-01-09T07:55:38.349Z,868
2017-01-09T07:56:38.257Z,884
2017-01-09T07:57:39.229Z,912
2017-01-09T07:58:38.574Z,948
2017-01-09T07:59:39.103Z,952
2017-01-09T08:00:39.215Z,940
2017-01-09T08:01:39.794Z,964
2017-01-09T08:02:39.276Z,1012
2017-01-09T08:03:38.967Z,1064
2017-01-09T08:04:38.535Z,1124
2017-01-09T08:05:38.724Z,1152
2017-01-09T08:06:39.696Z,1148
2017-01-09T08:07:38.986Z,1124
2017-01-09T08:08:38.880Z,1120
2017-01-09T08:09:38.783Z,1132
2017-01-09T08:10:39.288Z,1164
2017-01-09T08:11:39.057Z,1200
2017-01-09T08:12:40.390Z,1248
2017-01-09T08:13:39.035Z,1320
2017-01-09T08:14:39.205Z,1388
2017-01-09T08:15:38.847Z,1404
2017-01-09T08:16:38.368Z,1436
2017-01-09T08:17:39.142Z,1464
2017-01-09T08:18:38.781Z,1528
2017-01-09T08:19:38.736Z,1596
2017-01-09T08:20:38.638Z,1616
2017-01-09T08:21:39.253Z,1656
2017-01-09T08:22:38.617Z,1676
2017-01-09T08:23:38.552Z,1656
2017-01-09T08:24:39.394Z,1648
2017-01-09T08:25:38.533Z,1672
2017-01-09T08:26:38.843Z,1716
2017-01-09T08:27:38.806Z,1868
2017-01-09T08:28:39.051Z,1972
2017-01-09T08:29:39.119Z,2044
2017-01-09T08:30:39.432Z,2108
2017-01-09T08:31:39.993Z,2168
2017-01-09T08:32:39.191Z,2164
2017-01-09T08:33:39.300Z,2312
2017-01-09T08:34:39.316Z,2472
2017-01-09T08:35:38.787Z,2528
2017-01-09T08:36:38.700Z,2528
2017-01-09T08:37:39.669Z,2556
2017-01-09T08:38:40.042Z,2636
2017-01-09T08:39:39.924Z,2596
2017-01-09T08:40:39.421Z,2536
2017-01-09T08:41:38.952Z,2800
2017-01-09T08:42:40.057Z,2904
2017-01-09T08:43:39.470Z,2908
2017-01-09T08:44:38.950Z,2920
2017-01-09T08:45:39.621Z,2916
2017-01-09T08:46:39.218Z,2928
2017-01-09T08:47:39.705Z,2952
2017-01-09T08:48:39.195Z,3008
2017-01-09T08:49:39.077Z,3076
2017-01-09T08:50:39.269Z,3180
2017-01-09T08:51:38.722Z,3220
2017-01-09T08:52:38.839Z,3260
2017-01-09T08:53:39.390Z,3316
2017-01-09T08:54:39.075Z,3388
2017-01-09T08:55:38.632Z,3428
2017-01-09T08:56:39.619Z,3420
2017-01-09T08:57:39.551Z,3372
2017-01-09T08:58:39.265Z,3244
2017-01-09T08:59:39.082Z,3136
2017-01-09T09:00:40.054Z,3208
2017-01-09T09:01:39.151Z,3352
2017-01-09T09:02:39.874Z,3472
2017-01-09T09:03:39.507Z,3536
2017-01-09T09:04:39.639Z,3576
2017-01-09T09:05:39.702Z,3668
2017-01-09T09:06:39.500Z,3804
2017-01-09T09:07:39.076Z,3852
2017-01-09T09:08:39.142Z,3708
2017-01-09T09:09:40.373Z,3560
2017-01-09T09:10:39.529Z,3852
2017-01-09T09:11:39.462Z,4284
2017-01-09T09:12:39.379Z,4476
2017-01-09T09:13:39.904Z,4548
2017-01-09T09:14:40.090Z,4568
2017-01-09T09:15:40.139Z,4600
2017-01-09T09:16:39.785Z,4636
2017-01-09T09:17:39.601Z,4716
2017-01-09T09:18:39.348Z,4804
2017-01-09T09:19:39.795Z,4852
2017-01-09T09:20:41.305Z,4896
2017-01-09T09:21:39.952Z,4992
2017-01-09T09:22:39.573Z,5112
2017-01-09T09:23:39.546Z,5264
2017-01-09T09:24:39.466Z,5340
2017-01-09T09:25:39.893Z,5408
2017-01-09T09:26:39.662Z,5488
2017-01-09T09:27:40.229Z,5484
2017-01-09T09:28:40.680Z,5484
2017-01-09T09:29:40.308Z,5556
2017-01-09T09:30:39.971Z,5560
2017-01-09T09:31:40.420Z,5520
2017-01-09T09:32:39.788Z,5524
2017-01-09T09:33:40.144Z,5508
2017-01-09T09:34:40.659Z,5600
2017-01-09T09:35:39.843Z,5756
2017-01-09T09:36:39.675Z,5896
2017-01-09T09:37:39.681Z,5956
2017-01-09T09:38:40.733Z,6036
2017-01-09T09:39:40.133Z,6112
2017-01-09T09:40:40.204Z,6204
2017-01-09T09:41:40.180Z,6152
2017-01-09T09:42:40.594Z,5944
2017-01-09T09:43:40.400Z,5724
2017-01-09T09:44:39.623Z,5632
2017-01-09T09:45:40.799Z,5684
2017-01-09T09:46:40.222Z,5728
2017-01-09T09:47:40.457Z,5768
2017-01-09T09:48:40.477Z,5884
2017-01-09T09:49:41.490Z,6080
2017-01-09T09:50:40.031Z,6200
2017-01-09T09:51:39.962Z,6272
2017-01-09T09:52:40.285Z,6384
2017-01-09T09:53:40.255Z,6404
2017-01-09T09:54:40.931Z,6308
2017-01-09T09:55:40.171Z,6244
2017-01-09T09:56:40.476Z,6252
2017-01-09T09:57:39.593Z,6280
2017-01-09T09:58:41.369Z,6344
2017-01-09T09:59:39.660Z,6448
2017-01-09T10:00:40.923Z,6472
2017-01-09T10:01:40.871Z,6472
2017-01-09T10:02:40.457Z,6556
2017-01-09T10:03:40.125Z,6716
2017-01-09T10:04:40.184Z,6864
2017-01-09T10:05:40.122Z,6920
2017-01-09T10:06:39.938Z,6988
2017-01-09T10:07:39.707Z,6944
2017-01-09T10:08:40.827Z,6760
2017-01-09T10:09:40.035Z,6628
2017-01-09T10:10:40.305Z,6596
2017-01-09T10:11:40.389Z,6672
2017-01-09T10:12:40.480Z,6672
2017-01-09T10:13:40.529Z,6820
2017-01-09T10:14:39.822Z,6984
2017-01-09T10:15:40.503Z,6972
2017-01-09T10:16:40.363Z,6928
2017-01-09T10:17:40.235Z,7088
2017-01-09T10:18:40.516Z,7280
2017-01-09T10:19:40.279Z,7304
2017-01-09T10:20:41.875Z,7256
2017-01-09T10:21:41.307Z,7168
2017-01-09T10:22:40.214Z,7008
2017-01-09T10:23:40.982Z,6872
2017-01-09T10:24:40.374Z,6768
2017-01-09T10:25:40.327Z,6692
2017-01-09T10:26:40.366Z,6708
2017-01-09T10:27:40.608Z,6732
2017-01-09T10:28:40.848Z,6780
2017-01-09T10:29:40.195Z,6884
2017-01-09T10:30:40.897Z,7020
2017-01-09T10:31:40.849Z,7140
2017-01-09T10:32:40.513Z,7216
2017-01-09T10:33:40.292Z,7260
2017-01-09T10:34:41.027Z,7392
2017-01-09T10:35:40.840Z,7436
2017-01-09T10:36:40.554Z,7432
2017-01-09T10:37:40.834Z,7404
2017-01-09T10:38:40.457Z,7428
2017-01-09T10:39:40.713Z,7464
2017-01-09T10:40:40.788Z,7428
2017-01-09T10:41:40.217Z,7404
2017-01-09T10:42:40.549Z,7416
2017-01-09T10:43:41.177Z,7408
2017-01-09T10:44:40.858Z,7456
2017-01-09T10:45:40.854Z,7432
2017-01-09T10:46:41.634Z,7412
2017-01-09T10:47:40.485Z,7320
2017-01-09T10:48:42.316Z,7288
2017-01-09T10:49:41.008Z,7336
2017-01-09T10:50:41.835Z,7444
2017-01-09T10:51:40.434Z,7496
2017-01-09T10:52:40.669Z,7440
2017-01-09T10:53:41.947Z,7300
2017-01-09T10:54:41.697Z,7232
2017-01-09T10:55:40.507Z,7264
2017-01-09T10:56:41.448Z,7276
2017-01-09T10:57:40.974Z,7180
2017-01-09T10:58:41.661Z,7088
2017-01-09T10:59:42.134Z,7056
2017-01-09T11:00:41.982Z,7028
2017-01-09T11:01:40.560Z,7012
2017-01-09T11:02:40.382Z,7008
2017-01-09T11:03:40.764Z,6908
2017-01-09T11:04:41.379Z,6764
2017-01-09T11:05:40.934Z,6536
2017-01-09T11:06:41.346Z,6384
2017-01-09T11:07:41.181Z,6288
2017-01-09T11:08:40.739Z,6160
2017-01-09T11:09:41.187Z,6000
2017-01-09T11:10:40.557Z,5928
2017-01-09T11:11:41.575Z,5892
2017-01-09T11:12:41.811Z,5824
2017-01-09T11:13:40.817Z,5748
2017-01-09T11:14:41.151Z,5716
2017-01-09T11:15:41.490Z,5648
2017-01-09T11:16:41.202Z,5568
2017-01-09T11:17:40.631Z,5524
2017-01-09T11:18:42.634Z,5556
2017-01-09T11:19:41.189Z,5708
2017-01-09T11:20:41.592Z,5940
2017-01-09T11:21:41.141Z,6132
2017-01-09T11:22:41.852Z,6272
2017-01-09T11:23:40.826Z,6300
2017-01-09T11:24:41.655Z,6220
2017-01-09T11:25:41.198Z,6084
2017-01-09T11:26:41.147Z,5960
2017-01-09T11:27:41.871Z,5836
2017-01-09T11:28:41.363Z,5724
2017-01-09T11:29:41.359Z,5720
2017-01-09T11:30:42.711Z,5716
2017-01-09T11:31:41.751Z,5636
2017-01-09T11:32:40.875Z,5552
2017-01-09T11:33:41.621Z,5516
2017-01-09T11:34:41.625Z,5428
2017-01-09T11:35:41.126Z,5304
2017-01-09T11:36:41.126Z,5260
2017-01-09T11:37:42.207Z,5344
2017-01-09T11:38:42.423Z,5356
2017-01-09T11:39:42.031Z,5320
2017-01-09T11:40:41.333Z,5256
2017-01-09T11:41:41.560Z,5248
2017-01-09T11:42:42.552Z,5344
2017-01-09T11:43:41.511Z,5464
2017-01-09T11:44:41.708Z,5552
2017-01-09T11:45:41.372Z,5692
2017-01-09T11:46:41.566Z,5868
2017-01-09T11:47:42.139Z,6120
2017-01-09T11:48:42.042Z,6476
2017-01-09T11:49:41.804Z,7032
2017-01-09T11:50:42.122Z,7300
2017-01-09T11:51:42.373Z,7392
2017-01-09T11:52:42.211Z,7348
2017-01-09T11:53:43.042Z,7312
2017-01-09T11:54:41.034Z,7260
2017-01-09T11:55:42.081Z,7232
2017-01-09T11:56:41.654Z,7252
2017-01-09T11:57:41.690Z,7188
2017-01-09T11:58:41.753Z,7120
2017-01-09T11:59:41.418Z,7092
2017-01-09T12:00:42.428Z,7068
2017-01-09T12:01:42.406Z,7008
2017-01-09T12:02:41.124Z,6952
2017-01-09T12:03:42.211Z,6924
2017-01-09T12:04:41.569Z,6900
2017-01-09T12:05:41.926Z,6912
2017-01-09T12:06:41.851Z,7012
2017-01-09T12:07:41.872Z,7200
2017-01-09T12:08:41.430Z,7348
2017-01-09T12:09:41.554Z,7432
2017-01-09T12:10:42.506Z,7664
2017-01-09T12:11:42.518Z,8260
2017-01-09T12:12:42.267Z,8656
2017-01-09T12:13:42.013Z,9028
2017-01-09T12:14:41.638Z,9144
2017-01-09T12:15:41.971Z,9144
2017-01-09T12:16:41.655Z,9112
2017-01-09T12:17:41.877Z,8836
2017-01-09T12:18:41.890Z,8676
2017-01-09T12:19:41.721Z,8740
2017-01-09T12:20:42.700Z,9004
2017-01-09T12:21:41.884Z,9268
2017-01-09T12:22:42.196Z,9360
2017-01-09T12:23:42.162Z,9312
2017-01-09T12:24:42.163Z,9168
2017-01-09T12:25:42.938Z,8924
2017-01-09T12:26:42.386Z,8212
2017-01-09T12:27:41.777Z,6548
2017-01-09T12:28:42.039Z,5260
2017-01-09T12:29:42.311Z,4732
2017-01-09T12:30:41.619Z,4656
2017-01-09T12:31:41.786Z,5132
2017-01-09T12:32:42.669Z,6144
2017-01-09T12:33:42.629Z,6952
2017-01-09T12:34:42.482Z,7628
2017-01-09T12:35:41.840Z,8112
2017-01-09T12:36:42.726Z,8492
2017-01-09T12:37:42.097Z,8776
2017-01-09T12:38:42.763Z,8884
2017-01-09T12:39:43.770Z,8816
2017-01-09T12:40:42.953Z,8836
2017-01-09T12:41:42.385Z,8856
2017-01-09T12:42:42.525Z,8580
2017-01-09T12:43:41.948Z,8364
2017-01-09T12:44:42.716Z,8184
2017-01-09T12:45:41.926Z,8040
2017-01-09T12:46:42.678Z,7992
2017-01-09T12:47:42.484Z,7996
2017-01-09T12:48:41.807Z,7976
2017-01-09T12:49:42.177Z,7832
2017-01-09T12:50:42.302Z,7748
2017-01-09T12:51:42.106Z,7632
2017-01-09T12:52:43.065Z,7516
2017-01-09T12:53:43.610Z,7432
2017-01-09T12:54:41.997Z,7400
2017-01-09T12:55:42.628Z,7456
2017-01-09T12:56:42.687Z,7436
2017-01-09T12:57:42.905Z,7324
2017-01-09T12:58:43.324Z,7228
2017-01-09T12:59:43.314Z,7256
2017-01-09T13:00:42.762Z,7360
2017-01-09T13:01:42.196Z,7440
2017-01-09T13:02:43.296Z,7392
2017-01-09T13:03:42.385Z,7272
2017-01-09T13:04:43.258Z,7044
2017-01-09T13:05:42.506Z,6964
2017-01-09T13:06:42.494Z,7112
2017-01-09T13:07:43.122Z,7340
2017-01-09T13:08:41.913Z,7292
2017-01-09T13:09:42.777Z,6888
2017-01-09T13:10:42.518Z,6456
2017-01-09T13:11:42.841Z,5940
2017-01-09T13:12:43.201Z,5988
2017-01-09T13:13:42.821Z,6668
2017-01-09T13:14:43.212Z,7104
2017-01-09T13:15:42.741Z,7252
2017-01-09T13:16:42.179Z,7356
2017-01-09T13:17:42.298Z,7388
2017-01-09T13:18:42.612Z,7264
2017-01-09T13:19:42.726Z,7164
2017-01-09T13:20:43.817Z,7060
2017-01-09T13:21:43.932Z,7056
2017-01-09T13:22:42.209Z,7044
2017-01-09T13:23:43.101Z,7000
2017-01-09T13:24:42.936Z,7336
2017-01-09T13:25:42.704Z,6316
2017-01-09T13:26:42.817Z,4628
2017-01-09T13:27:43.237Z,4052
2017-01-09T13:28:42.852Z,4164
2017-01-09T13:29:43.190Z,4728
2017-01-09T13:30:44.199Z,5444
2017-01-09T13:31:43.322Z,6028
2017-01-09T13:32:42.772Z,6156
2017-01-09T13:33:42.970Z,6200
2017-01-09T13:34:43.007Z,6356
2017-01-09T13:35:42.884Z,6528
2017-01-09T13:36:42.745Z,6652
2017-01-09T13:37:42.550Z,6792
2017-01-09T13:38:42.569Z,6684
2017-01-09T13:39:43.178Z,6544
2017-01-09T13:40:43.509Z,6424
2017-01-09T13:41:43.305Z,6264
2017-01-09T13:42:42.318Z,6104
2017-01-09T13:43:43.148Z,5900
2017-01-09T13:44:42.967Z,5732
2017-01-09T13:45:42.942Z,5556
2017-01-09T13:46:42.955Z,5424
2017-01-09T13:47:43.893Z,5284
2017-01-09T13:48:42.754Z,5124
2017-01-09T13:49:43.156Z,5088
2017-01-09T13:50:42.836Z,5012
2017-01-09T13:51:42.838Z,4964
2017-01-09T13:52:43.863Z,4936
2017-01-09T13:53:42.918Z,4912
2017-01-09T13:54:44.140Z,4912
2017-01-09T13:55:42.730Z,4948
2017-01-09T13:56:43.681Z,4956
2017-01-09T13:57:44.202Z,4908
2017-01-09T13:58:43.059Z,4908
2017-01-09T13:59:42.959Z,4792
2017-01-09T14:00:44.744Z,4504
2017-01-09T14:01:43.232Z,4256
2017-01-09T14:02:44.018Z,4192
2017-01-09T14:03:43.520Z,4192